createdAt,value
2019-03-30T00:00:22.353Z,63.18
2019-03-30T00:01:27.414Z,63.18
2019-03-30T00:02:30.860Z,63.42
2019-03-30T00:03:34.291Z,63.65
2019-03-30T00:04:37.720Z,63.86
2019-03-30T00:05:41.285Z,64.00
2019-03-30T00:06:44.802Z,64.01
2019-03-30T00:07:48.258Z,64.75
2019-03-30T00:08:51.690Z,65.15
2019-03-30T00:09:55.112Z,65.43
2019-03-30T00:10:58.558Z,65.16
2019-03-30T00:12:01.983Z,64.89
2019-03-30T00:13:05.719Z,64.81
2019-03-30T00:14:09.221Z,64.64
2019-03-30T00:15:12.727Z,64.63
2019-03-30T00:16:16.221Z,64.63
2019-03-30T00:17:19.651Z,64.82
2019-03-30T00:18:23.098Z,65.26
2019-03-30T00:19:34.691Z,65.34
2019-03-30T00:20:31.682Z,65.32
2019-03-30T00:21:35.114Z,65.07
2019-03-30T00:22:38.544Z,64.89
2019-03-30T00:23:41.992Z,64.83
2019-03-30T00:24:45.448Z,64.92
2019-03-30T00:25:49.018Z,64.94
2019-03-30T00:26:52.456Z,64.73
2019-03-30T00:27:55.887Z,64.53
2019-03-30T00:28:59.342Z,64.53
2019-03-30T00:30:02.969Z,64.75
2019-03-30T00:31:06.471Z,64.74
2019-03-30T00:32:09.926Z,64.84
2019-03-30T00:33:13.351Z,64.92
2019-03-30T00:34:16.797Z,65.05
2019-03-30T00:35:20.241Z,65.28
2019-03-30T00:36:23.740Z,65.32
2019-03-30T00:37:27.170Z,65.57
2019-03-30T00:38:30.599Z,65.69
2019-03-30T00:39:34.201Z,65.56
2019-03-30T00:40:37.657Z,65.49
2019-03-30T00:41:41.159Z,65.23
2019-03-30T00:42:44.685Z,65.24
2019-03-30T00:43:48.190Z,65.24
2019-03-30T00:44:51.658Z,65.39
2019-03-30T00:45:55.110Z,65.39
2019-03-30T00:46:58.611Z,65.56
2019-03-30T00:48:02.051Z,65.64
2019-03-30T00:49:05.567Z,65.72
2019-03-30T00:50:09.125Z,65.67
2019-03-30T00:51:12.549Z,65.82
2019-03-30T00:52:16.040Z,66.32
2019-03-30T00:53:19.475Z,66.45
2019-03-30T00:54:22.919Z,66.37
2019-03-30T00:55:26.445Z,66.18
2019-03-30T00:56:29.958Z,66.12
2019-03-30T00:57:33.386Z,66.03
2019-03-30T00:58:36.849Z,66.20
2019-03-30T00:59:40.278Z,66.21
2019-03-30T01:00:43.797Z,66.13
2019-03-30T01:01:47.320Z,66.20
2019-03-30T01:02:50.756Z,66.20
2019-03-30T01:03:54.186Z,65.99
2019-03-30T01:04:57.690Z,65.91
2019-03-30T01:06:01.286Z,65.62
2019-03-30T01:07:04.880Z,65.62
2019-03-30T01:08:08.579Z,65.73
2019-03-30T01:09:12.098Z,65.74
2019-03-30T01:10:15.680Z,65.85
2019-03-30T01:11:19.568Z,65.85
2019-03-30T01:12:23.021Z,65.76
2019-03-30T01:13:26.465Z,65.90
2019-03-30T01:14:29.917Z,66.31
2019-03-30T01:15:33.328Z,66.33
2019-03-30T01:16:36.849Z,66.16
2019-03-30T01:17:40.279Z,66.46
2019-03-30T01:18:43.708Z,66.89
2019-03-30T01:19:47.247Z,66.91
2019-03-30T01:20:50.720Z,67.02
2019-03-30T01:21:56.215Z,67.27
2019-03-30T01:22:59.379Z,67.30
2019-03-30T01:24:02.809Z,67.21
2019-03-30T01:25:10.038Z,67.00
2019-03-30T01:26:13.487Z,66.93
2019-03-30T01:27:16.937Z,67.42
2019-03-30T01:28:20.374Z,67.59
2019-03-30T01:29:23.813Z,67.73
2019-03-30T01:30:27.245Z,67.71
2019-03-30T01:31:30.683Z,67.69
2019-03-30T01:32:35.150Z,67.29
2019-03-30T01:33:38.726Z,66.36
2019-03-30T01:34:42.216Z,66.36
2019-03-30T01:35:45.596Z,66.41
2019-03-30T01:36:49.170Z,66.48
2019-03-30T01:37:52.618Z,66.50
2019-03-30T01:38:56.051Z,66.39
2019-03-30T01:39:59.487Z,66.38
2019-03-30T01:41:02.983Z,66.24
2019-03-30T01:42:06.421Z,66.11
2019-03-30T01:43:09.868Z,66.17
2019-03-30T01:44:13.299Z,66.39
2019-03-30T01:45:16.727Z,66.44
2019-03-30T01:46:20.157Z,66.34
2019-03-30T01:47:23.590Z,66.54
2019-03-30T01:48:27.043Z,66.97
2019-03-30T01:49:30.492Z,67.18
2019-03-30T01:50:33.926Z,67.23
2019-03-30T01:51:37.366Z,67.04
2019-03-30T01:52:40.802Z,66.90
2019-03-30T01:53:44.325Z,67.19
2019-03-30T01:54:47.770Z,67.19
2019-03-30T01:55:51.199Z,67.40
2019-03-30T01:56:54.695Z,67.79
2019-03-30T01:57:58.129Z,67.71
2019-03-30T01:59:01.646Z,67.57
2019-03-30T02:00:10.086Z,67.50
2019-03-30T02:01:13.596Z,67.28
2019-03-30T02:02:17.103Z,67.28
2019-03-30T02:03:20.535Z,67.21
2019-03-30T02:04:24.234Z,67.42
2019-03-30T02:05:27.738Z,67.40
2019-03-30T02:06:31.188Z,67.41
2019-03-30T02:07:34.679Z,67.35
2019-03-30T02:08:38.110Z,67.29
2019-03-30T02:09:41.560Z,67.33
2019-03-30T02:10:45.964Z,67.28
2019-03-30T02:11:49.470Z,67.30
2019-03-30T02:12:52.901Z,67.31
2019-03-30T02:13:56.332Z,67.30
2019-03-30T02:14:59.803Z,67.30
2019-03-30T02:16:03.317Z,67.28
2019-03-30T02:17:06.733Z,67.39
2019-03-30T02:18:10.233Z,67.52
2019-03-30T02:19:13.798Z,67.43
2019-03-30T02:20:30.556Z,67.11
2019-03-30T02:21:28.283Z,67.01
2019-03-30T02:22:31.790Z,67.08
2019-03-30T02:23:35.316Z,67.11
2019-03-30T02:24:38.847Z,67.08
2019-03-30T02:25:42.524Z,67.46
2019-03-30T02:26:45.971Z,67.65
2019-03-30T02:27:49.448Z,67.79
2019-03-30T02:28:52.895Z,67.93
2019-03-30T02:29:56.277Z,67.92
2019-03-30T02:30:59.771Z,67.47
2019-03-30T02:32:03.515Z,67.47
2019-03-30T02:33:07.091Z,67.82
2019-03-30T02:34:10.535Z,67.92
2019-03-30T02:35:14.053Z,67.88
2019-03-30T02:36:17.647Z,67.79
2019-03-30T02:37:21.110Z,67.97
2019-03-30T02:38:24.553Z,67.67
2019-03-30T02:39:28.050Z,67.15
2019-03-30T02:40:31.480Z,67.15
2019-03-30T02:41:34.949Z,67.15
2019-03-30T02:42:38.431Z,67.29
2019-03-30T02:43:41.983Z,67.61
2019-03-30T02:44:45.413Z,67.96
2019-03-30T02:45:48.923Z,68.27
2019-03-30T02:46:52.363Z,68.57
2019-03-30T02:47:55.869Z,68.50
2019-03-30T02:48:59.367Z,68.29
2019-03-30T02:50:02.884Z,68.05
2019-03-30T02:51:06.320Z,67.86
2019-03-30T02:52:09.852Z,67.94
2019-03-30T02:53:13.298Z,68.15
2019-03-30T02:54:16.763Z,68.13
2019-03-30T02:55:20.270Z,68.10
2019-03-30T02:56:23.700Z,68.25
2019-03-30T02:57:27.322Z,68.49
2019-03-30T02:58:30.811Z,68.53
2019-03-30T02:59:34.235Z,68.51
2019-03-30T03:00:37.956Z,68.33
2019-03-30T03:01:41.481Z,68.37
2019-03-30T03:02:44.926Z,68.61
2019-03-30T03:03:48.363Z,68.98
2019-03-30T03:04:51.800Z,69.31
2019-03-30T03:05:55.237Z,69.30
2019-03-30T03:06:58.667Z,69.24
2019-03-30T03:08:02.113Z,69.07
2019-03-30T03:09:08.167Z,69.09
2019-03-30T03:10:12.047Z,69.03
2019-03-30T03:11:15.599Z,68.97
2019-03-30T03:12:18.991Z,68.85
2019-03-30T03:13:22.515Z,68.80
2019-03-30T03:14:25.991Z,68.24
2019-03-30T03:15:29.394Z,67.50
2019-03-30T03:16:32.896Z,67.53
2019-03-30T03:17:36.314Z,67.61
2019-03-30T03:18:39.764Z,67.50
2019-03-30T03:19:43.230Z,67.17
2019-03-30T03:20:46.741Z,66.82
2019-03-30T03:21:50.164Z,67.16
2019-03-30T03:22:53.665Z,67.62
2019-03-30T03:23:57.130Z,68.24
2019-03-30T03:25:00.647Z,68.36
2019-03-30T03:26:04.089Z,68.36
2019-03-30T03:27:07.513Z,68.31
2019-03-30T03:28:10.939Z,68.23
2019-03-30T03:29:14.403Z,68.17
2019-03-30T03:30:18.073Z,68.16
2019-03-30T03:31:21.501Z,68.11
2019-03-30T03:32:25.195Z,68.10
2019-03-30T03:33:28.685Z,68.04
2019-03-30T03:34:32.189Z,67.65
2019-03-30T03:35:35.680Z,67.45
2019-03-30T03:36:39.106Z,67.34
2019-03-30T03:37:46.227Z,67.21
2019-03-30T03:38:47.746Z,67.30
2019-03-30T03:39:51.260Z,67.44
2019-03-30T03:40:54.696Z,67.50
2019-03-30T03:41:58.134Z,67.28
2019-03-30T03:43:01.563Z,67.29
2019-03-30T03:44:05.203Z,67.70
2019-03-30T03:45:08.775Z,68.06
2019-03-30T03:46:12.175Z,67.96
2019-03-30T03:47:15.672Z,67.83
2019-03-30T03:48:19.112Z,67.60
2019-03-30T03:49:22.571Z,67.30
2019-03-30T03:50:29.047Z,66.89
2019-03-30T03:51:33.317Z,67.20
2019-03-30T03:52:37.072Z,67.65
2019-03-30T03:53:40.865Z,68.08
2019-03-30T03:54:44.660Z,68.22
2019-03-30T03:55:48.360Z,68.33
2019-03-30T03:56:52.732Z,68.15
2019-03-30T03:57:56.375Z,68.06
2019-03-30T03:59:01.584Z,68.08
2019-03-30T04:00:06.622Z,68.31
2019-03-30T04:01:10.740Z,68.46
2019-03-30T04:02:16.766Z,68.48
2019-03-30T04:03:21.557Z,68.82
2019-03-30T04:04:27.346Z,68.88
2019-03-30T04:05:31.835Z,68.75
2019-03-30T04:06:36.883Z,69.01
2019-03-30T04:07:41.897Z,69.04
2019-03-30T04:08:47.781Z,68.94
2019-03-30T04:09:54.415Z,68.72
2019-03-30T04:10:59.593Z,68.71
2019-03-30T04:12:06.092Z,69.16
2019-03-30T04:13:11.194Z,69.27
2019-03-30T04:14:16.190Z,69.38
2019-03-30T04:15:24.462Z,69.39
2019-03-30T04:16:28.039Z,69.38
2019-03-30T04:17:31.924Z,69.33
2019-03-30T04:18:35.482Z,69.27
2019-03-30T04:19:38.986Z,69.19
2019-03-30T04:20:42.485Z,69.13
2019-03-30T04:21:45.926Z,69.21
2019-03-30T04:22:49.364Z,69.23
2019-03-30T04:23:54.501Z,69.14
2019-03-30T04:24:58.076Z,68.93
2019-03-30T04:26:01.543Z,68.79
2019-03-30T04:27:05.050Z,68.72
2019-03-30T04:28:08.478Z,68.64
2019-03-30T04:29:11.910Z,68.61
2019-03-30T04:30:15.352Z,68.66
2019-03-30T04:31:18.806Z,68.81
2019-03-30T04:32:22.256Z,68.87
2019-03-30T04:33:28.636Z,68.84
2019-03-30T04:34:32.076Z,68.88
2019-03-30T04:35:35.505Z,68.95
2019-03-30T04:36:38.954Z,68.94
2019-03-30T04:37:42.385Z,68.88
2019-03-30T04:38:45.823Z,68.94
2019-03-30T04:39:49.252Z,69.11
2019-03-30T04:40:52.749Z,69.04
2019-03-30T04:41:56.201Z,68.94
2019-03-30T04:42:59.701Z,68.85
2019-03-30T04:44:03.144Z,68.89
2019-03-30T04:45:08.462Z,69.07
2019-03-30T04:46:11.895Z,69.18
2019-03-30T04:47:15.343Z,69.22
2019-03-30T04:48:18.790Z,69.20
2019-03-30T04:49:22.347Z,69.14
2019-03-30T04:50:25.861Z,68.90
2019-03-30T04:51:29.287Z,68.95
2019-03-30T04:52:32.737Z,69.00
2019-03-30T04:53:36.165Z,68.89
2019-03-30T04:54:39.603Z,68.77
2019-03-30T04:55:43.098Z,68.67
2019-03-30T04:56:46.538Z,68.69
2019-03-30T04:57:50.072Z,68.92
2019-03-30T04:58:53.515Z,68.92
2019-03-30T04:59:56.960Z,68.80
2019-03-30T05:01:00.389Z,68.78
2019-03-30T05:02:03.892Z,68.73
2019-03-30T05:03:07.445Z,68.77
2019-03-30T05:04:10.870Z,68.76
2019-03-30T05:05:14.405Z,68.90
2019-03-30T05:06:17.874Z,69.08
2019-03-30T05:07:21.320Z,69.23
2019-03-30T05:08:24.771Z,69.41
2019-03-30T05:09:28.258Z,69.41
2019-03-30T05:10:31.692Z,69.38
2019-03-30T05:11:35.144Z,69.42
2019-03-30T05:12:38.578Z,69.36
2019-03-30T05:13:42.050Z,69.36
2019-03-30T05:14:45.501Z,69.51
2019-03-30T05:15:48.973Z,69.70
2019-03-30T05:16:52.416Z,69.83
2019-03-30T05:17:55.837Z,69.97
2019-03-30T05:18:59.314Z,70.00
2019-03-30T05:20:03.163Z,70.00
2019-03-30T05:21:06.580Z,69.95
2019-03-30T05:22:13.519Z,69.91
2019-03-30T05:23:15.341Z,70.00
2019-03-30T05:24:18.799Z,70.13
2019-03-30T05:25:22.234Z,70.07
2019-03-30T05:26:25.740Z,70.02
2019-03-30T05:27:29.172Z,70.00
2019-03-30T05:28:32.598Z,69.89
2019-03-30T05:29:36.056Z,69.71
2019-03-30T05:30:39.491Z,69.71
2019-03-30T05:31:42.926Z,69.62
2019-03-30T05:32:46.361Z,69.50
2019-03-30T05:33:49.790Z,69.55
2019-03-30T05:34:53.238Z,69.81
2019-03-30T05:35:56.667Z,69.93
2019-03-30T05:37:00.089Z,69.89
2019-03-30T05:38:03.539Z,69.88
2019-03-30T05:39:07.024Z,70.02
2019-03-30T05:40:10.724Z,70.07
2019-03-30T05:41:14.222Z,69.99
2019-03-30T05:42:17.651Z,69.94
2019-03-30T05:43:21.093Z,70.03
2019-03-30T05:44:24.544Z,69.94
2019-03-30T05:45:27.977Z,69.82
2019-03-30T05:46:31.404Z,69.77
2019-03-30T05:47:34.906Z,69.79
2019-03-30T05:48:38.405Z,69.72
2019-03-30T05:49:41.866Z,69.73
2019-03-30T05:50:45.309Z,69.53
2019-03-30T05:51:48.737Z,69.56
2019-03-30T05:52:52.184Z,69.50
2019-03-30T05:53:55.634Z,69.60
2019-03-30T05:54:59.065Z,69.62
2019-03-30T05:56:02.510Z,69.72
2019-03-30T05:57:05.939Z,69.73
2019-03-30T05:58:09.370Z,69.78
2019-03-30T05:59:12.875Z,69.67
2019-03-30T06:00:18.033Z,69.63
2019-03-30T06:01:21.533Z,69.57
2019-03-30T06:02:24.975Z,69.55
2019-03-30T06:03:28.397Z,69.63
2019-03-30T06:04:31.828Z,69.75
2019-03-30T06:05:35.283Z,69.94
2019-03-30T06:06:38.725Z,69.96
2019-03-30T06:07:42.169Z,69.89
2019-03-30T06:08:45.738Z,69.88
2019-03-30T06:09:49.429Z,69.94
2019-03-30T06:10:52.947Z,69.95
2019-03-30T06:11:56.562Z,70.01
2019-03-30T06:13:00.070Z,70.00
2019-03-30T06:14:03.757Z,69.88
2019-03-30T06:15:08.337Z,69.65
2019-03-30T06:16:11.852Z,69.47
2019-03-30T06:17:15.451Z,69.46
2019-03-30T06:18:18.880Z,69.60
2019-03-30T06:19:22.461Z,69.71
2019-03-30T06:20:25.890Z,69.74
2019-03-30T06:21:29.410Z,69.74
2019-03-30T06:22:40.186Z,69.67
2019-03-30T06:23:44.349Z,69.55
2019-03-30T06:24:47.840Z,69.37
2019-03-30T06:25:51.339Z,69.10
2019-03-30T06:26:54.984Z,69.05
2019-03-30T06:27:58.537Z,69.01
2019-03-30T06:29:02.062Z,68.75
2019-03-30T06:30:22.782Z,68.53
2019-03-30T06:31:26.317Z,68.22
2019-03-30T06:32:29.840Z,68.21
2019-03-30T06:33:33.341Z,68.38
2019-03-30T06:34:36.849Z,68.29
2019-03-30T06:35:40.344Z,68.33
2019-03-30T06:36:43.848Z,68.50
2019-03-30T06:37:47.448Z,68.52
2019-03-30T06:38:50.953Z,68.39
2019-03-30T06:39:54.468Z,68.46
2019-03-30T06:40:57.986Z,68.52
2019-03-30T06:42:01.568Z,68.49
2019-03-30T06:43:07.532Z,68.26
2019-03-30T06:44:10.259Z,68.11
2019-03-30T06:45:14.032Z,68.07
2019-03-30T06:46:17.542Z,68.02
2019-03-30T06:47:21.045Z,68.10
2019-03-30T06:48:24.575Z,68.02
2019-03-30T06:49:28.146Z,67.83
2019-03-30T06:50:31.586Z,67.74
2019-03-30T06:51:35.182Z,67.60
2019-03-30T06:52:42.657Z,67.51
2019-03-30T06:53:43.779Z,67.42
2019-03-30T06:54:47.216Z,67.31
2019-03-30T06:55:50.909Z,66.98
2019-03-30T06:56:54.440Z,66.72
2019-03-30T06:57:57.907Z,66.53
2019-03-30T06:59:01.341Z,66.41
2019-03-30T07:00:06.402Z,66.44
2019-03-30T07:01:09.829Z,66.37
2019-03-30T07:02:13.703Z,66.39
2019-03-30T07:03:17.269Z,66.31
2019-03-30T07:04:20.685Z,66.25
2019-03-30T07:05:24.454Z,66.22
2019-03-30T07:06:29.431Z,65.98
2019-03-30T07:07:33.129Z,65.12
2019-03-30T07:08:37.414Z,65.11
2019-03-30T07:09:41.402Z,65.20
2019-03-30T07:10:45.573Z,65.06
2019-03-30T07:11:51.652Z,65.07
2019-03-30T07:12:55.415Z,64.98
2019-03-30T07:14:01.925Z,64.93
2019-03-30T07:15:05.703Z,64.74
2019-03-30T07:16:09.262Z,64.67
2019-03-30T07:17:13.264Z,64.51
2019-03-30T07:18:17.835Z,64.38
2019-03-30T07:19:22.978Z,64.25
2019-03-30T07:20:28.150Z,64.14
2019-03-30T07:21:31.640Z,64.08
2019-03-30T07:22:35.070Z,64.05
2019-03-30T07:23:38.565Z,64.09
2019-03-30T07:24:42.016Z,64.09
2019-03-30T07:25:45.507Z,63.82
2019-03-30T07:26:48.942Z,63.72
2019-03-30T07:27:52.550Z,63.66
2019-03-30T07:28:56.005Z,63.63
2019-03-30T07:29:59.424Z,63.59
2019-03-30T07:31:02.845Z,63.45
2019-03-30T07:32:06.352Z,63.40
2019-03-30T07:33:09.794Z,63.23
2019-03-30T07:34:13.236Z,63.19
2019-03-30T07:35:16.681Z,63.06
2019-03-30T07:36:20.110Z,62.96
2019-03-30T07:37:23.616Z,62.77
2019-03-30T07:38:27.052Z,62.60
2019-03-30T07:39:30.481Z,62.60
2019-03-30T07:40:34.161Z,62.48
2019-03-30T07:41:37.525Z,62.47
2019-03-30T07:42:40.958Z,62.37
2019-03-30T07:43:44.394Z,62.17
2019-03-30T07:44:47.840Z,62.03
2019-03-30T07:45:51.295Z,62.16
2019-03-30T07:46:54.725Z,61.71
2019-03-30T07:47:58.158Z,61.65
2019-03-30T07:49:01.586Z,61.51
2019-03-30T07:50:08.937Z,61.03
2019-03-30T07:51:12.383Z,61.03
2019-03-30T07:52:15.902Z,60.35
2019-03-30T07:53:26.212Z,60.35
2019-03-30T07:54:24.563Z,60.47
2019-03-30T07:55:27.994Z,60.57
2019-03-30T07:56:31.513Z,60.56
2019-03-30T07:57:34.945Z,60.84
2019-03-30T07:58:38.372Z,60.33
2019-03-30T07:59:41.815Z,60.33
2019-03-30T08:00:45.305Z,60.25
2019-03-30T08:01:48.766Z,60.25
2019-03-30T08:02:52.279Z,59.52
2019-03-30T08:03:55.746Z,59.63
2019-03-30T08:04:59.171Z,59.57
2019-03-30T08:06:02.599Z,59.45
2019-03-30T08:07:06.047Z,59.45
2019-03-30T08:08:09.554Z,59.49
2019-03-30T08:09:13.066Z,59.51
2019-03-30T08:10:16.636Z,59.47
2019-03-30T08:11:20.135Z,59.48
2019-03-30T08:12:23.616Z,59.16
2019-03-30T08:13:27.061Z,59.12
2019-03-30T08:14:30.547Z,59.01
2019-03-30T08:15:33.997Z,58.78
2019-03-30T08:16:37.432Z,58.95
2019-03-30T08:17:40.951Z,58.95
2019-03-30T08:18:44.383Z,58.95
2019-03-30T08:19:50.385Z,58.64
2019-03-30T08:20:53.049Z,58.58
2019-03-30T08:21:56.484Z,58.60
2019-03-30T08:23:00.032Z,58.48
2019-03-30T08:24:03.520Z,58.45
2019-03-30T08:25:07.293Z,58.13
2019-03-30T08:26:10.740Z,58.27
2019-03-30T08:27:14.190Z,58.13
2019-03-30T08:28:17.642Z,57.63
2019-03-30T08:29:21.079Z,58.01
2019-03-30T08:30:24.585Z,58.03
2019-03-30T08:31:28.038Z,57.95
2019-03-30T08:32:31.475Z,57.90
2019-03-30T08:33:34.932Z,58.00
2019-03-30T08:34:38.385Z,57.93
2019-03-30T08:35:41.803Z,57.97
2019-03-30T08:36:45.323Z,57.79
2019-03-30T08:37:48.843Z,57.78
2019-03-30T08:38:52.294Z,57.70
2019-03-30T08:39:55.749Z,57.87
2019-03-30T08:40:59.193Z,58.00
2019-03-30T08:42:02.708Z,58.04
2019-03-30T08:43:06.212Z,58.00
2019-03-30T08:44:09.750Z,57.98
2019-03-30T08:45:13.328Z,57.76
2019-03-30T08:46:16.768Z,57.58
2019-03-30T08:47:20.224Z,57.64
2019-03-30T08:48:23.659Z,57.69
2019-03-30T08:49:27.188Z,57.68
2019-03-30T08:50:30.645Z,57.51
2019-03-30T08:51:34.148Z,57.45
2019-03-30T08:52:37.589Z,57.36
2019-03-30T08:53:53.959Z,57.38
2019-03-30T08:54:46.216Z,57.40
2019-03-30T08:55:49.655Z,57.36
2019-03-30T08:56:53.098Z,57.27
2019-03-30T08:57:56.599Z,56.56
2019-03-30T08:59:00.045Z,56.55
2019-03-30T09:00:04.160Z,56.76
2019-03-30T09:01:07.595Z,56.62
2019-03-30T09:02:11.053Z,56.52
2019-03-30T09:03:14.486Z,56.40
2019-03-30T09:04:17.923Z,56.49
2019-03-30T09:05:21.385Z,56.44
2019-03-30T09:06:24.889Z,56.51
2019-03-30T09:07:28.415Z,56.38
2019-03-30T09:08:32.423Z,56.39
2019-03-30T09:09:35.902Z,56.41
2019-03-30T09:10:39.495Z,56.39
2019-03-30T09:11:43.544Z,56.45
2019-03-30T09:12:47.244Z,56.36
2019-03-30T09:13:50.672Z,56.38
2019-03-30T09:14:54.119Z,56.29
2019-03-30T09:15:57.573Z,56.21
2019-03-30T09:17:01.012Z,55.43
2019-03-30T09:18:04.524Z,55.43
2019-03-30T09:19:07.988Z,55.37
2019-03-30T09:20:11.466Z,55.41
2019-03-30T09:21:14.988Z,55.47
2019-03-30T09:22:18.443Z,55.40
2019-03-30T09:23:21.967Z,55.38
2019-03-30T09:24:25.398Z,55.35
2019-03-30T09:25:28.966Z,55.31
2019-03-30T09:26:32.430Z,55.27
2019-03-30T09:27:35.871Z,55.04
2019-03-30T09:28:39.301Z,54.87
2019-03-30T09:29:42.773Z,54.58
2019-03-30T09:30:46.168Z,54.35
2019-03-30T09:31:49.705Z,54.33
2019-03-30T09:32:53.155Z,54.23
2019-03-30T09:33:56.584Z,54.28
2019-03-30T09:35:00.021Z,54.64
2019-03-30T09:36:03.463Z,54.71
2019-03-30T09:37:06.910Z,55.23
2019-03-30T09:38:10.407Z,54.49
2019-03-30T09:39:13.842Z,54.11
2019-03-30T09:40:17.419Z,53.83
2019-03-30T09:41:20.847Z,53.74
2019-03-30T09:42:24.308Z,53.55
2019-03-30T09:43:27.826Z,53.49
2019-03-30T09:44:31.341Z,53.56
2019-03-30T09:45:34.886Z,53.25
2019-03-30T09:46:38.316Z,52.51
2019-03-30T09:47:41.847Z,52.01
2019-03-30T09:48:45.303Z,51.88
2019-03-30T09:49:48.727Z,51.45
2019-03-30T09:50:52.162Z,51.56
2019-03-30T09:51:55.603Z,51.51
2019-03-30T09:52:59.111Z,51.53
2019-03-30T09:54:02.552Z,51.47
2019-03-30T09:55:07.245Z,51.56
2019-03-30T09:56:10.678Z,51.37
2019-03-30T09:57:14.137Z,50.87
2019-03-30T09:58:17.601Z,50.43
2019-03-30T09:59:21.976Z,49.98
2019-03-30T10:00:25.491Z,49.15
2019-03-30T10:01:28.935Z,49.27
2019-03-30T10:02:32.372Z,48.94
2019-03-30T10:03:35.832Z,48.49
2019-03-30T10:04:39.301Z,48.44
2019-03-30T10:05:42.927Z,48.59
2019-03-30T10:06:46.366Z,48.75
2019-03-30T10:07:49.803Z,48.22
2019-03-30T10:08:53.298Z,48.19
2019-03-30T10:09:56.790Z,48.25
2019-03-30T10:11:00.226Z,48.25
2019-03-30T10:12:03.837Z,47.61
2019-03-30T10:13:07.256Z,47.83
2019-03-30T10:14:10.708Z,47.91
2019-03-30T10:15:14.487Z,47.98
2019-03-30T10:16:17.992Z,47.75
2019-03-30T10:17:21.497Z,45.97
2019-03-30T10:18:24.924Z,45.91
2019-03-30T10:19:28.380Z,45.76
2019-03-30T10:20:31.855Z,46.20
2019-03-30T10:21:35.298Z,46.61
2019-03-30T10:22:42.054Z,46.12
2019-03-30T10:23:43.973Z,46.01
2019-03-30T10:24:47.420Z,45.92
2019-03-30T10:25:50.929Z,46.13
2019-03-30T10:26:54.397Z,46.17
2019-03-30T10:27:57.911Z,46.45
2019-03-30T10:29:01.436Z,46.26
2019-03-30T10:30:07.154Z,46.23
2019-03-30T10:31:10.727Z,45.89
2019-03-30T10:32:14.173Z,44.59
2019-03-30T10:33:17.607Z,44.19
2019-03-30T10:34:21.059Z,43.90
2019-03-30T10:35:24.516Z,42.54
2019-03-30T10:36:27.963Z,43.42
2019-03-30T10:37:31.450Z,43.00
2019-03-30T10:38:34.955Z,43.15
2019-03-30T10:39:38.458Z,43.45
2019-03-30T10:40:41.921Z,43.48
2019-03-30T10:41:45.379Z,43.62
2019-03-30T10:42:48.818Z,43.75
2019-03-30T10:43:52.346Z,43.88
2019-03-30T10:44:55.776Z,43.48
2019-03-30T10:45:59.391Z,43.78
2019-03-30T10:47:02.833Z,43.65
2019-03-30T10:48:06.350Z,42.97
2019-03-30T10:49:09.783Z,43.24
2019-03-30T10:50:13.393Z,43.36
2019-03-30T10:51:16.884Z,43.32
2019-03-30T10:52:20.319Z,42.78
2019-03-30T10:53:23.849Z,42.39
2019-03-30T10:54:27.351Z,42.34
2019-03-30T10:55:30.803Z,42.25
2019-03-30T10:56:34.315Z,41.98
2019-03-30T10:57:37.911Z,42.13
2019-03-30T10:58:41.358Z,42.03
2019-03-30T10:59:44.859Z,41.78
2019-03-30T11:00:48.292Z,41.63
2019-03-30T11:01:51.818Z,41.07
2019-03-30T11:02:55.251Z,41.36
2019-03-30T11:03:58.687Z,41.60
2019-03-30T11:05:02.128Z,41.40
2019-03-30T11:06:05.565Z,41.07
2019-03-30T11:07:09.089Z,40.61
2019-03-30T11:08:12.588Z,40.88
2019-03-30T11:09:16.016Z,39.01
2019-03-30T11:10:19.458Z,39.01
2019-03-30T11:11:22.887Z,38.70
2019-03-30T11:12:26.339Z,39.29
2019-03-30T11:13:29.769Z,39.12
2019-03-30T11:14:33.198Z,38.57
2019-03-30T11:15:36.638Z,38.60
2019-03-30T11:16:40.075Z,38.43
2019-03-30T11:17:43.543Z,38.25
2019-03-30T11:18:46.986Z,38.14
2019-03-30T11:19:50.423Z,38.27
2019-03-30T11:20:53.919Z,38.04
2019-03-30T11:21:57.356Z,38.15
2019-03-30T11:23:00.880Z,37.74
2019-03-30T11:24:06.709Z,37.24
2019-03-30T11:25:09.644Z,37.51
2019-03-30T11:26:13.101Z,37.61
2019-03-30T11:27:16.602Z,37.97
2019-03-30T11:28:20.059Z,38.28
2019-03-30T11:29:23.492Z,37.92
2019-03-30T11:30:26.926Z,37.84
2019-03-30T11:31:30.427Z,37.71
2019-03-30T11:32:33.930Z,38.10
2019-03-30T11:33:37.374Z,37.98
2019-03-30T11:34:40.869Z,37.89
2019-03-30T11:35:44.317Z,37.87
2019-03-30T11:36:47.751Z,37.87
2019-03-30T11:37:51.259Z,37.86
2019-03-30T11:38:54.723Z,36.80
2019-03-30T11:39:58.189Z,36.79
2019-03-30T11:41:01.651Z,37.06
2019-03-30T11:42:05.220Z,37.26
2019-03-30T11:43:08.648Z,37.56
2019-03-30T11:44:12.166Z,36.89
2019-03-30T11:45:15.693Z,37.32
2019-03-30T11:46:19.219Z,36.81
2019-03-30T11:47:22.660Z,35.75
2019-03-30T11:48:26.353Z,36.01
2019-03-30T11:49:29.876Z,35.18
2019-03-30T11:50:33.397Z,35.57
2019-03-30T11:51:36.900Z,35.83
2019-03-30T11:52:40.404Z,35.53
2019-03-30T11:53:43.874Z,35.33
2019-03-30T11:54:47.328Z,35.35
2019-03-30T11:55:50.896Z,34.35
2019-03-30T11:56:54.392Z,33.93
2019-03-30T11:57:57.855Z,33.82
2019-03-30T11:59:01.432Z,33.56
2019-03-30T12:00:06.293Z,32.72
2019-03-30T12:01:09.873Z,32.23
2019-03-30T12:02:26.946Z,32.05
2019-03-30T12:03:18.683Z,32.43
2019-03-30T12:04:22.139Z,32.77
2019-03-30T12:05:25.671Z,32.63
2019-03-30T12:06:29.182Z,32.69
2019-03-30T12:07:32.691Z,32.04
2019-03-30T12:08:36.186Z,31.77
2019-03-30T12:09:39.786Z,31.55
2019-03-30T12:10:43.370Z,31.76
2019-03-30T12:11:46.872Z,31.21
2019-03-30T12:12:50.309Z,30.92
2019-03-30T12:13:54.000Z,31.00
2019-03-30T12:14:57.499Z,31.06
2019-03-30T12:16:01.093Z,30.94
2019-03-30T12:17:04.688Z,31.02
2019-03-30T12:18:08.262Z,30.48
2019-03-30T12:19:11.764Z,30.48
2019-03-30T12:20:15.333Z,29.39
2019-03-30T12:21:18.932Z,28.67
2019-03-30T12:22:22.380Z,27.91
2019-03-30T12:23:25.984Z,27.64
2019-03-30T12:24:29.431Z,27.48
2019-03-30T12:25:35.731Z,26.41
2019-03-30T12:26:38.274Z,26.57
2019-03-30T12:27:41.910Z,26.87
2019-03-30T12:28:45.425Z,26.86
2019-03-30T12:29:48.874Z,26.62
2019-03-30T12:30:52.400Z,26.56
2019-03-30T12:31:55.939Z,27.29
2019-03-30T12:32:59.461Z,27.08
2019-03-30T12:34:02.888Z,26.07
2019-03-30T12:35:08.065Z,25.95
2019-03-30T12:36:11.580Z,24.99
2019-03-30T12:37:15.041Z,24.51
2019-03-30T12:38:18.542Z,24.87
2019-03-30T12:39:22.042Z,24.27
2019-03-30T12:40:25.583Z,24.06
2019-03-30T12:41:29.083Z,24.57
2019-03-30T12:42:32.877Z,23.40
2019-03-30T12:43:38.886Z,22.63
2019-03-30T12:44:41.516Z,22.70
2019-03-30T12:45:45.117Z,22.06
2019-03-30T12:46:48.565Z,21.97
2019-03-30T12:47:52.011Z,21.15
2019-03-30T12:48:55.452Z,20.89
2019-03-30T12:49:58.892Z,20.79
2019-03-30T12:51:02.326Z,19.20
2019-03-30T12:52:05.829Z,20.21
2019-03-30T12:53:09.357Z,19.79
2019-03-30T12:54:12.868Z,19.30
2019-03-30T12:55:16.372Z,18.25
2019-03-30T12:56:19.803Z,17.61
2019-03-30T12:57:23.238Z,16.71
2019-03-30T12:58:26.776Z,16.71
2019-03-30T12:59:30.220Z,16.45
2019-03-30T13:00:33.649Z,16.45
2019-03-30T13:01:37.176Z,16.72
2019-03-30T13:02:40.581Z,16.78
2019-03-30T13:03:44.031Z,17.05
2019-03-30T13:04:47.483Z,16.33
2019-03-30T13:05:50.924Z,16.76
2019-03-30T13:06:54.437Z,16.37
2019-03-30T13:07:57.871Z,16.38
2019-03-30T13:09:01.337Z,16.29
2019-03-30T13:10:07.006Z,16.25
2019-03-30T13:11:10.455Z,16.00
2019-03-30T13:12:13.962Z,15.98
2019-03-30T13:13:17.403Z,16.15
2019-03-30T13:14:20.851Z,15.67
2019-03-30T13:15:24.354Z,15.20
2019-03-30T13:16:27.783Z,15.47
2019-03-30T13:17:31.224Z,15.39
2019-03-30T13:18:34.666Z,15.21
2019-03-30T13:19:38.115Z,15.69
2019-03-30T13:20:41.562Z,14.60
2019-03-30T13:21:52.552Z,15.16
2019-03-30T13:22:50.164Z,14.59
2019-03-30T13:23:53.679Z,14.42
2019-03-30T13:24:57.129Z,14.73
2019-03-30T13:26:03.768Z,14.17
2019-03-30T13:27:05.816Z,14.43
2019-03-30T13:28:09.348Z,14.49
2019-03-30T13:29:12.788Z,14.12
2019-03-30T13:30:16.775Z,13.87
2019-03-30T13:31:20.224Z,14.36
2019-03-30T13:32:23.653Z,14.44
2019-03-30T13:33:30.168Z,14.19
2019-03-30T13:34:33.604Z,14.17
2019-03-30T13:35:37.063Z,13.90
2019-03-30T13:36:41.775Z,13.64
2019-03-30T13:37:45.216Z,12.99
2019-03-30T13:38:48.720Z,13.50
2019-03-30T13:39:52.168Z,13.00